Time;durP1;ratioP1;P1;durP2;ratioP2;P2;SDS_P1;SDS_P2;PMS_P1;PMS_P2;Temp;Humidity;BMP_temperature;BMP_pressure;BME280_temperature;BME280_humidity;BME280_pressure;Samples;Min_cycle;Max_cycle;Signal;HPM_P1;HPM_P2
2021/04/03 00:01:37;;;;;;;18.50;10.02;;;4.90;99.90;;;;;;4952276;29;20057;-67
2021/04/03 00:04:04;;;;;;;16.95;9.88;;;5.00;99.90;;;;;;4952611;29;20047;-66
2021/04/03 00:06:30;;;;;;;16.20;9.32;;;5.10;99.90;;;;;;4951027;28;20125;-68
2021/04/03 00:08:57;;;;;;;23.73;10.00;;;5.00;99.90;;;;;;4952680;29;20058;-66
2021/04/03 00:11:23;;;;;;;19.27;9.57;;;5.00;99.90;;;;;;4952260;29;20035;-67
2021/04/03 00:13:49;;;;;;;15.80;9.75;;;4.90;99.90;;;;;;4935631;29;20047;-67
2021/04/03 00:16:18;;;;;;;18.08;9.35;;;5.00;99.90;;;;;;4952126;28;20097;-67
2021/04/03 00:18:45;;;;;;;18.33;9.32;;;5.00;99.90;;;;;;4952901;29;20055;-67
2021/04/03 00:21:12;;;;;;;19.92;8.40;;;5.10;99.90;;;;;;4954444;28;20459;-66
2021/04/03 00:23:38;;;;;;;15.35;8.60;;;5.10;99.90;;;;;;4954758;29;20075;-67
2021/04/03 00:26:05;;;;;;;20.15;9.02;;;5.10;99.90;;;;;;4923926;29;20050;-67
2021/04/03 00:28:32;;;;;;;15.25;9.63;;;5.10;99.90;;;;;;4939371;29;20051;-67
2021/04/03 00:31:00;;;;;;;13.43;8.32;;;5.10;99.90;;;;;;4948354;29;20071;-66
2021/04/03 00:33:27;;;;;;;18.88;9.55;;;5.00;99.90;;;;;;4938509;29;20039;-67
2021/04/03 00:35:54;;;;;;;17.40;8.88;;;5.10;99.90;;;;;;4938834;29;20051;-66
2021/04/03 00:38:20;;;;;;;15.38;8.70;;;5.10;99.90;;;;;;4925479;29;20051;-66
2021/04/03 00:40:48;;;;;;;17.35;8.10;;;5.00;99.90;;;;;;4956530;29;20047;-66
2021/04/03 00:43:20;;;;;;;16.27;8.07;;;5.00;99.90;;;;;;4951573;28;20106;-67
2021/04/03 00:45:47;;;;;;;12.90;7.18;;;5.00;99.90;;;;;;4945123;29;20057;-67
2021/04/03 00:48:14;;;;;;;13.57;7.00;;;5.10;99.90;;;;;;4955220;28;20058;-67
2021/04/03 00:50:43;;;;;;;17.25;6.50;;;5.00;99.90;;;;;;4955249;29;20051;-67
2021/04/03 00:53:13;;;;;;;14.38;7.03;;;5.00;99.90;;;;;;4954304;28;20035;-67
2021/04/03 00:55:40;;;;;;;13.95;6.05;;;5.00;99.90;;;;;;4955568;28;20070;-67
2021/04/03 00:58:08;;;;;;;15.35;5.85;;;5.00;99.90;;;;;;4951072;29;20095;-67
2021/04/03 01:00:34;;;;;;;11.63;5.18;;;5.10;99.90;;;;;;4949035;29;20043;-67
2021/04/03 01:03:00;;;;;;;18.65;5.30;;;5.00;99.90;;;;;;4955567;29;20051;-66
2021/04/03 01:05:27;;;;;;;9.38;5.18;;;5.10;99.90;;;;;;4937752;29;20051;-66
2021/04/03 01:07:55;;;;;;;15.98;4.97;;;5.10;99.90;;;;;;4954547;29;20456;-66
2021/04/03 01:10:28;;;;;;;10.35;4.50;;;5.00;99.90;;;;;;4953363;29;20054;-67
2021/04/03 01:13:19;;;;;;;13.75;5.13;;;5.10;99.90;;;;;;4954835;29;20086;-66
2021/04/03 01:15:48;;;;;;;11.93;4.38;;;5.10;99.90;;;;;;4947356;29;20047;-66
2021/04/03 01:18:33;;;;;;;9.07;3.95;;;5.20;99.90;;;;;;4954914;29;20061;-66
2021/04/03 01:21:09;;;;;;;7.72;4.25;;;5.20;99.90;;;;;;4955409;29;20051;-66
2021/04/03 01:23:41;;;;;;;9.27;4.00;;;5.20;99.90;;;;;;4937758;29;20055;-66
2021/04/03 01:26:35;;;;;;;9.20;4.17;;;5.10;99.90;;;;;;4955322;28;20460;-66
2021/04/03 01:29:39;;;;;;;11.55;4.18;;;5.10;99.90;;;;;;4954099;29;20051;-66
2021/04/03 01:32:07;;;;;;;8.63;3.90;;;5.20;99.90;;;;;;4954466;28;20094;-66
2021/04/03 01:34:39;;;;;;;6.97;3.90;;;5.20;99.90;;;;;;4949881;29;20044;-66
2021/04/03 01:37:12;;;;;;;8.82;3.50;;;5.20;99.90;;;;;;4947547;29;20054;-66
2021/04/03 01:39:41;;;;;;;9.82;2.97;;;5.20;99.90;;;;;;4955211;29;20268;-66
2021/04/03 01:42:13;;;;;;;14.38;3.65;;;5.20;99.90;;;;;;4936401;29;20051;-66
2021/04/03 01:44:48;;;;;;;8.73;3.70;;;5.20;99.90;;;;;;4955148;28;20098;-66
2021/04/03 01:47:18;;;;;;;10.95;3.70;;;5.20;99.90;;;;;;4954175;29;20051;-66
2021/04/03 01:49:48;;;;;;;9.57;3.47;;;5.10;99.90;;;;;;4954112;29;20501;-67
2021/04/03 01:52:17;;;;;;;9.50;3.28;;;5.20;99.90;;;;;;4936990;29;20051;-66
2021/04/03 01:54:45;;;;;;;10.32;3.67;;;5.20;99.90;;;;;;4954261;28;20039;-67
2021/04/03 01:57:12;;;;;;;8.98;3.25;;;5.20;99.90;;;;;;4953791;29;20127;-66
2021/04/03 01:59:39;;;;;;;7.72;3.10;;;5.20;99.90;;;;;;4954138;29;20118;-66
2021/04/03 02:02:07;;;;;;;8.70;3.15;;;5.30;99.90;;;;;;4954324;29;20146;-66
2021/04/03 02:04:34;;;;;;;8.88;3.50;;;5.30;99.90;;;;;;4953351;28;20051;-66
2021/04/03 02:07:01;;;;;;;10.70;3.63;;;5.20;99.90;;;;;;4954042;29;20077;-66
2021/04/03 02:09:28;;;;;;;11.65;3.33;;;5.20;99.90;;;;;;4954032;29;20185;-66
2021/04/03 02:11:56;;;;;;;8.02;3.05;;;5.20;99.90;;;;;;4952329;29;20106;-66
2021/04/03 02:14:24;;;;;;;11.07;3.67;;;5.20;99.90;;;;;;4953971;28;20043;-66
2021/04/03 02:16:52;;;;;;;7.50;3.28;;;5.10;99.90;;;;;;4954554;29;20114;-66
2021/04/03 02:19:20;;;;;;;10.43;3.13;;;5.10;99.90;;;;;;4953709;29;20539;-66
2021/04/03 02:21:47;;;;;;;7.28;3.03;;;5.10;99.90;;;;;;4953789;29;20039;-66
2021/04/03 02:24:14;;;;;;;9.18;3.55;;;5.10;99.90;;;;;;4952720;29;20051;-66
2021/04/03 02:26:41;;;;;;;7.85;3.75;;;5.10;99.90;;;;;;4953395;29;20131;-66
2021/04/03 02:29:08;;;;;;;9.93;3.20;;;5.10;99.90;;;;;;4952662;28;20189;-66
2021/04/03 02:31:34;;;;;;;8.63;3.65;;;5.00;99.90;;;;;;4953442;29;20051;-65
2021/04/03 02:34:02;;;;;;;6.55;3.47;;;5.00;99.90;;;;;;4968298;28;20046;-66
2021/04/03 02:36:29;;;;;;;13.65;3.80;;;5.00;99.90;;;;;;4969912;28;20508;-65
2021/04/03 02:38:55;;;;;;;10.88;3.45;;;5.10;99.90;;;;;;4952058;29;20047;-66
2021/04/03 02:41:39;;;;;;;13.77;3.58;;;5.00;99.90;;;;;;4935549;29;20055;-66
2021/04/03 02:44:22;;;;;;;9.63;3.83;;;4.90;99.90;;;;;;4936291;29;20043;-65
2021/04/03 02:46:59;;;;;;;8.38;3.10;;;4.90;99.90;;;;;;4936129;29;20119;-65
2021/04/03 02:49:31;;;;;;;11.32;4.28;;;5.00;99.90;;;;;;4953029;29;20051;-65
2021/04/03 02:52:02;;;;;;;8.63;3.72;;;5.00;99.90;;;;;;4951794;29;20047;-66
2021/04/03 02:54:30;;;;;;;6.95;3.67;;;5.00;99.90;;;;;;4935735;28;20058;-65
2021/04/03 02:56:59;;;;;;;9.32;3.53;;;5.00;99.90;;;;;;4953031;29;20047;-65
2021/04/03 02:59:38;;;;;;;11.23;3.88;;;4.90;99.90;;;;;;4953396;29;20043;-65
2021/04/03 03:02:06;;;;;;;7.20;4.25;;;4.90;99.90;;;;;;4952442;29;20051;-66
2021/04/03 03:04:34;;;;;;;10.98;4.18;;;4.90;99.90;;;;;;4951660;28;20051;-66
2021/04/03 03:07:01;;;;;;;11.40;4.03;;;4.90;99.90;;;;;;4953568;29;20105;-65
2021/04/03 03:09:28;;;;;;;9.27;4.10;;;4.90;99.90;;;;;;4953106;29;20043;-65
2021/04/03 03:11:59;;;;;;;10.52;4.38;;;4.90;99.90;;;;;;4952182;29;20043;-65
2021/04/03 03:14:26;;;;;;;10.85;4.95;;;4.90;99.90;;;;;;4952309;28;20051;-66
2021/04/03 03:16:55;;;;;;;11.40;4.20;;;5.00;99.90;;;;;;4953510;29;20051;-65
2021/04/03 03:19:23;;;;;;;8.93;4.13;;;4.90;99.90;;;;;;4952716;28;20051;-65
2021/04/03 03:21:50;;;;;;;12.15;3.75;;;5.00;99.90;;;;;;4952629;29;20047;-66
2021/04/03 03:24:19;;;;;;;9.82;4.13;;;5.10;99.90;;;;;;4952458;28;20070;-66
2021/04/03 03:26:46;;;;;;;11.82;4.72;;;5.10;99.90;;;;;;4952427;29;20051;-66
2021/04/03 03:29:13;;;;;;;10.80;4.93;;;5.10;99.90;;;;;;4948047;29;20036;-66
2021/04/03 03:31:40;;;;;;;10.02;5.03;;;5.10;99.90;;;;;;4932327;29;20103;-65
2021/04/03 03:34:08;;;;;;;11.18;4.63;;;5.00;99.90;;;;;;4951652;28;20046;-66
2021/04/03 03:36:36;;;;;;;11.98;4.47;;;5.10;99.90;;;;;;4952626;28;20031;-65
2021/04/03 03:39:05;;;;;;;10.70;4.53;;;5.10;99.90;;;;;;4951331;28;20051;-66
2021/04/03 03:41:33;;;;;;;12.35;5.30;;;5.00;99.90;;;;;;4952608;29;20388;-65
2021/04/03 03:44:05;;;;;;;9.40;4.40;;;5.10;99.90;;;;;;4950668;29;20447;-66
2021/04/03 03:46:32;;;;;;;11.98;4.75;;;5.10;99.90;;;;;;4952376;28;20043;-66
2021/04/03 03:48:59;;;;;;;14.73;4.68;;;5.00;99.90;;;;;;4952164;29;20039;-65
2021/04/03 03:51:25;;;;;;;10.93;4.32;;;5.10;99.90;;;;;;4933145;29;20165;-66
2021/04/03 03:53:52;;;;;;;9.82;5.05;;;5.00;99.90;;;;;;4933370;29;20056;-66
2021/04/03 03:56:18;;;;;;;13.80;4.50;;;5.10;99.90;;;;;;4951668;28;20058;-65
2021/04/03 03:58:45;;;;;;;9.73;4.57;;;5.00;99.90;;;;;;4952400;29;20043;-65
2021/04/03 04:01:11;;;;;;;11.73;4.13;;;5.00;99.90;;;;;;4934335;29;20043;-66
2021/04/03 04:03:38;;;;;;;9.15;4.70;;;4.90;99.90;;;;;;4919200;29;20110;-65
2021/04/03 04:06:05;;;;;;;13.20;4.70;;;5.00;99.90;;;;;;4952273;28;20150;-65
2021/04/03 04:08:32;;;;;;;9.40;4.55;;;5.00;99.90;;;;;;4952165;29;20492;-65
2021/04/03 04:10:59;;;;;;;10.52;5.15;;;4.90;99.90;;;;;;4952102;29;20070;-65
2021/04/03 04:13:26;;;;;;;13.60;5.00;;;5.00;99.90;;;;;;4951793;29;20050;-65
2021/04/03 04:15:53;;;;;;;8.73;4.60;;;4.90;99.90;;;;;;4935395;29;20047;-65
2021/04/03 04:18:19;;;;;;;10.18;4.78;;;5.00;99.90;;;;;;4950961;29;20035;-65
2021/04/03 04:20:45;;;;;;;9.75;4.40;;;4.90;99.90;;;;;;4952258;29;20055;-65
2021/04/03 04:23:12;;;;;;;8.98;4.90;;;4.90;99.90;;;;;;4934666;29;20052;-65
2021/04/03 04:25:38;;;;;;;8.52;4.43;;;4.90;99.90;;;;;;4951840;28;20062;-65
2021/04/03 04:28:05;;;;;;;12.45;4.25;;;5.00;99.90;;;;;;4951751;29;20046;-66
2021/04/03 04:30:31;;;;;;;10.77;4.78;;;5.00;99.90;;;;;;4951621;29;20526;-65
2021/04/03 04:32:58;;;;;;;10.70;5.18;;;4.90;99.90;;;;;;4956142;28;20035;-65
2021/04/03 04:35:24;;;;;;;15.35;5.68;;;4.90;99.90;;;;;;4953916;28;20043;-65
2021/04/03 04:37:50;;;;;;;11.38;4.78;;;4.90;99.90;;;;;;4934593;29;20048;-65
2021/04/03 04:40:18;;;;;;;13.45;5.18;;;4.80;99.90;;;;;;4951834;29;20151;-65
2021/04/03 04:42:45;;;;;;;14.15;5.55;;;4.80;99.90;;;;;;4950262;29;20508;-65
2021/04/03 04:45:12;;;;;;;11.73;5.85;;;4.70;99.90;;;;;;4949961;28;20043;-66
2021/04/03 04:47:58;;;;;;;11.95;5.25;;;4.80;99.90;;;;;;4948227;29;20058;-66
2021/04/03 04:50:25;;;;;;;13.05;6.18;;;4.90;99.90;;;;;;4950149;29;20043;-66
2021/04/03 04:52:51;;;;;;;11.13;5.00;;;4.80;99.90;;;;;;4951873;29;20054;-66
2021/04/03 04:55:18;;;;;;;10.85;5.65;;;4.90;99.90;;;;;;4951826;28;20039;-66
2021/04/03 04:57:44;;;;;;;10.45;5.55;;;4.90;99.90;;;;;;4951491;29;20044;-65
2021/04/03 05:00:11;;;;;;;12.55;5.60;;;5.00;99.90;;;;;;4951362;29;20047;-66
2021/04/03 05:02:38;;;;;;;17.77;6.93;;;4.90;99.90;;;;;;4951106;29;20101;-67
2021/04/03 05:05:05;;;;;;;14.43;6.45;;;4.90;99.90;;;;;;4952104;28;20110;-67
2021/04/03 05:07:31;;;;;;;13.02;6.32;;;4.90;99.90;;;;;;4951115;28;20508;-67
2021/04/03 05:09:58;;;;;;;12.43;5.45;;;4.80;99.90;;;;;;4954339;29;20043;-67
2021/04/03 05:12:24;;;;;;;13.82;6.05;;;4.90;99.90;;;;;;4955328;29;20112;-66
2021/04/03 05:14:51;;;;;;;11.80;6.55;;;4.80;99.90;;;;;;4937063;29;20044;-66
2021/04/03 05:17:18;;;;;;;13.27;6.57;;;4.80;99.90;;;;;;4938692;29;20043;-66
2021/04/03 05:19:44;;;;;;;13.63;6.65;;;4.80;99.90;;;;;;4955194;29;20055;-66
2021/04/03 05:22:10;;;;;;;11.13;5.53;;;4.80;99.90;;;;;;4937873;29;20055;-66
2021/04/03 05:24:37;;;;;;;15.07;6.60;;;4.80;99.90;;;;;;4937704;28;20567;-67
2021/04/03 05:27:03;;;;;;;14.32;6.10;;;4.80;99.90;;;;;;4955334;29;20305;-67
2021/04/03 05:29:30;;;;;;;19.17;7.40;;;4.80;99.90;;;;;;4955119;29;20105;-67
2021/04/03 05:31:56;;;;;;;11.30;5.70;;;4.90;99.90;;;;;;4952313;29;20043;-67
2021/04/03 05:34:23;;;;;;;14.48;6.88;;;4.90;99.90;;;;;;4955283;28;20051;-67
2021/04/03 05:37:09;;;;;;;12.98;5.72;;;4.90;99.90;;;;;;4955081;29;20134;-67
2021/04/03 05:39:36;;;;;;;15.20;6.63;;;4.90;99.90;;;;;;4937712;29;20527;-66
2021/04/03 05:42:03;;;;;;;15.88;6.43;;;4.80;99.90;;;;;;4954484;29;20043;-66
2021/04/03 05:44:30;;;;;;;13.75;5.82;;;4.90;99.90;;;;;;4953949;28;20050;-65
2021/04/03 05:46:58;;;;;;;14.52;6.55;;;4.80;99.90;;;;;;4937660;29;20106;-67
2021/04/03 05:49:24;;;;;;;13.00;6.90;;;4.80;99.90;;;;;;4954931;29;20055;-65
2021/04/03 05:52:11;;;;;;;18.63;8.10;;;4.80;99.90;;;;;;4954266;29;20130;-66
2021/04/03 05:54:40;;;;;;;14.98;7.40;;;4.80;99.90;;;;;;4955001;29;20054;-66
2021/04/03 05:57:07;;;;;;;15.85;8.25;;;4.80;99.90;;;;;;4937187;29;20047;-65
2021/04/03 05:59:34;;;;;;;14.90;7.60;;;4.80;99.90;;;;;;4952908;29;20052;-66
2021/04/03 06:02:03;;;;;;;14.93;8.48;;;4.80;99.90;;;;;;4935589;29;20134;-65
2021/04/03 06:04:29;;;;;;;23.27;9.80;;;4.80;99.90;;;;;;4951730;29;20058;-65
2021/04/03 06:06:56;;;;;;;22.15;9.32;;;4.80;99.90;;;;;;4954912;29;20392;-66
2021/04/03 06:09:23;;;;;;;21.60;10.00;;;4.80;99.90;;;;;;4954187;29;20043;-66
2021/04/03 06:11:50;;;;;;;16.63;9.45;;;4.80;99.90;;;;;;4953608;29;20040;-66
2021/04/03 06:14:17;;;;;;;22.98;10.15;;;4.80;99.90;;;;;;4936621;28;20078;-66
2021/04/03 06:16:49;;;;;;;18.02;9.88;;;4.80;99.90;;;;;;4954177;29;20101;-66
2021/04/03 06:19:35;;;;;;;17.60;9.68;;;4.90;99.90;;;;;;4954022;28;20106;-66
2021/04/03 06:22:03;;;;;;;25.15;10.88;;;4.90;99.90;;;;;;4935925;29;20050;-65
2021/04/03 06:24:33;;;;;;;21.38;11.13;;;5.00;99.90;;;;;;4953102;28;20073;-66
2021/04/03 06:27:07;;;;;;;20.90;11.82;;;4.90;99.90;;;;;;4936721;29;20132;-65
2021/04/03 06:29:46;;;;;;;20.65;10.90;;;5.00;99.90;;;;;;4952708;29;20043;-66
2021/04/03 06:32:25;;;;;;;22.30;11.40;;;5.20;99.90;;;;;;4953800;29;20051;-66
2021/04/03 06:34:54;;;;;;;26.63;12.48;;;5.30;99.90;;;;;;4951643;29;20051;-65
2021/04/03 06:37:34;;;;;;;21.17;11.57;;;5.30;99.90;;;;;;4954159;29;20043;-66
2021/04/03 06:40:13;;;;;;;25.92;12.80;;;5.50;99.90;;;;;;4953560;29;20047;-66
2021/04/03 06:42:40;;;;;;;22.00;13.05;;;5.50;99.90;;;;;;4936324;29;20111;-66
2021/04/03 06:45:23;;;;;;;26.27;13.82;;;5.60;99.90;;;;;;4936353;29;20051;-65
2021/04/03 06:47:52;;;;;;;23.25;12.23;;;5.60;99.90;;;;;;4936206;29;20051;-66
2021/04/03 06:50:21;;;;;;;22.02;12.85;;;5.70;99.90;;;;;;4933724;29;20114;-66
2021/04/03 06:52:48;;;;;;;24.23;13.25;;;5.60;99.90;;;;;;4950954;29;20134;-66
2021/04/03 06:55:17;;;;;;;20.20;12.90;;;5.80;99.90;;;;;;4956514;28;20126;-65
2021/04/03 06:57:44;;;;;;;18.63;11.50;;;5.90;99.90;;;;;;4953236;29;20039;-66
2021/04/03 07:00:13;;;;;;;21.55;12.20;;;5.90;99.90;;;;;;4951796;29;20055;-65
2021/04/03 07:02:59;;;;;;;19.38;10.70;;;6.00;99.90;;;;;;4952451;29;20043;-66
2021/04/03 07:05:33;;;;;;;18.58;10.95;;;5.90;99.90;;;;;;4953291;28;20047;-65
2021/04/03 07:08:03;;;;;;;21.17;10.50;;;6.00;99.90;;;;;;4952565;29;20074;-66
2021/04/03 07:10:30;;;;;;;15.48;9.32;;;6.00;99.90;;;;;;4952437;29;20050;-66
2021/04/03 07:12:57;;;;;;;16.70;10.38;;;6.00;99.90;;;;;;4952196;28;20236;-66
2021/04/03 07:15:25;;;;;;;25.85;10.75;;;5.90;99.90;;;;;;4951977;28;20464;-65
2021/04/03 07:17:52;;;;;;;23.05;9.85;;;5.90;99.90;;;;;;4952699;29;20039;-66
2021/04/03 07:20:23;;;;;;;17.98;9.15;;;6.10;99.90;;;;;;4935977;29;20110;-66
2021/04/03 07:23:11;;;;;;;19.70;8.20;;;6.20;99.90;;;;;;4952787;29;20121;-66
2021/04/03 07:25:40;;;;;;;14.85;8.43;;;6.20;99.90;;;;;;4952342;28;20389;-66
2021/04/03 07:28:41;;;;;;;18.95;9.07;;;6.30;99.90;;;;;;4952008;29;20477;-66
2021/04/03 07:31:37;;;;;;;17.40;7.15;;;6.40;99.90;;;;;;4950157;28;20073;-66
2021/04/03 07:34:03;;;;;;;18.38;7.50;;;6.40;99.90;;;;;;4951920;29;20102;-66
2021/04/03 07:36:35;;;;;;;22.92;7.57;;;6.30;99.90;;;;;;4952588;28;20051;-65
2021/04/03 07:39:26;;;;;;;15.85;7.05;;;6.10;99.90;;;;;;4949763;29;20109;-66
2021/04/03 07:42:06;;;;;;;13.23;5.88;;;6.20;99.90;;;;;;4950352;29;20087;-66
2021/04/03 07:44:35;;;;;;;16.52;6.43;;;6.30;99.90;;;;;;4951663;28;20045;-66
2021/04/03 07:47:18;;;;;;;13.35;6.30;;;6.20;99.90;;;;;;4952503;29;20040;-66
2021/04/03 07:49:45;;;;;;;19.13;6.53;;;6.30;99.90;;;;;;4951856;29;20456;-66
2021/04/03 07:52:12;;;;;;;15.45;5.95;;;6.50;99.90;;;;;;4950846;29;20101;-66
2021/04/03 07:54:39;;;;;;;16.10;5.97;;;6.50;99.90;;;;;;4950166;28;20043;-67
2021/04/03 07:57:10;;;;;;;15.00;5.18;;;6.60;99.90;;;;;;4952340;29;20043;-66
2021/04/03 07:59:47;;;;;;;14.95;5.53;;;6.60;99.90;;;;;;4951932;29;20058;-66
2021/04/03 08:02:14;;;;;;;11.77;4.78;;;7.00;99.90;;;;;;4951581;28;20500;-66
2021/04/03 08:04:41;;;;;;;13.52;4.30;;;6.90;99.90;;;;;;4951869;28;20055;-66
2021/04/03 08:07:08;;;;;;;12.80;4.20;;;7.10;99.90;;;;;;4951967;29;20114;-66
2021/04/03 08:09:35;;;;;;;11.98;4.05;;;7.40;99.90;;;;;;4952118;29;20044;-66
2021/04/03 08:12:03;;;;;;;10.55;3.78;;;7.30;99.90;;;;;;4952079;29;20039;-66
2021/04/03 08:14:32;;;;;;;13.88;4.05;;;7.30;99.90;;;;;;4952035;28;20031;-66
2021/04/03 08:16:59;;;;;;;9.85;3.88;;;7.10;99.90;;;;;;4950966;29;20377;-66
2021/04/03 08:19:28;;;;;;;9.88;3.60;;;7.20;99.90;;;;;;4951746;29;20044;-67
2021/04/03 08:21:55;;;;;;;15.30;4.35;;;7.20;99.90;;;;;;4950450;29;20035;-66
2021/04/03 08:24:23;;;;;;;10.68;3.50;;;7.10;99.90;;;;;;4951481;28;20492;-67
2021/04/03 08:26:50;;;;;;;13.25;3.97;;;7.00;99.90;;;;;;4951793;29;20043;-66
2021/04/03 08:29:30;;;;;;;12.13;3.85;;;6.60;99.90;;;;;;4951439;29;20117;-66
2021/04/03 08:31:58;;;;;;;10.98;3.88;;;6.70;99.90;;;;;;4951155;29;20125;-66
2021/04/03 08:34:25;;;;;;;15.80;4.70;;;6.80;99.90;;;;;;4952620;28;20098;-66
2021/04/03 08:36:53;;;;;;;15.73;4.82;;;6.70;99.90;;;;;;4948915;29;20051;-66
2021/04/03 08:39:21;;;;;;;37.63;5.32;;;7.00;99.90;;;;;;4951367;29;20054;-66
2021/04/03 08:41:52;;;;;;;10.30;4.38;;;7.00;99.90;;;;;;4940503;28;20047;-66
2021/04/03 08:44:23;;;;;;;12.63;4.70;;;7.20;99.90;;;;;;4938613;28;20066;-66
2021/04/03 08:46:53;;;;;;;;;;;6.90;99.90;;;;;;4956095;29;20106;-67
2021/04/03 08:49:35;;;;;;;12.45;4.43;;;7.10;99.90;;;;;;4938357;29;19922;-67
2021/04/03 08:52:06;;;;;;;12.07;4.40;;;7.40;99.90;;;;;;4954894;29;20134;-66
2021/04/03 08:54:41;;;;;;;13.75;4.68;;;7.00;99.90;;;;;;4955478;28;20078;-66
2021/04/03 08:57:25;;;;;;;16.48;4.88;;;7.00;99.90;;;;;;4954912;29;20047;-66
2021/04/03 08:59:55;;;;;;;9.82;4.32;;;7.10;99.90;;;;;;4950774;29;20047;-66
2021/04/03 09:02:21;;;;;;;10.20;3.80;;;7.30;99.90;;;;;;4955046;29;20094;-66
2021/04/03 09:04:48;;;;;;;12.85;4.25;;;7.60;99.90;;;;;;4937277;29;20043;-66
2021/04/03 09:07:34;;;;;;;16.02;4.22;;;7.40;99.90;;;;;;4954097;29;20091;-67
2021/04/03 09:10:14;;;;;;;12.00;4.45;;;7.80;99.90;;;;;;4955405;28;20039;-67
2021/04/03 09:12:42;;;;;;;9.65;3.63;;;7.90;99.90;;;;;;4949216;29;20381;-68
2021/04/03 09:15:09;;;;;;;14.00;4.28;;;8.00;99.90;;;;;;4954559;28;20126;-67
2021/04/03 09:17:49;;;;;;;12.73;3.95;;;7.90;99.90;;;;;;4936395;29;20089;-67
2021/04/03 09:20:20;;;;;;;11.77;3.10;;;8.30;99.90;;;;;;4954753;29;20563;-67
2021/04/03 09:22:50;;;;;;;14.75;3.88;;;8.40;99.90;;;;;;4953522;29;20074;-67
2021/04/03 09:25:19;;;;;;;13.68;3.38;;;9.00;99.90;;;;;;4954508;28;20047;-67
2021/04/03 09:28:02;;;;;;;7.35;3.38;;;9.10;99.90;;;;;;4954493;29;20146;-68
2021/04/03 09:30:55;;;;;;;10.85;3.60;;;9.20;99.90;;;;;;4953505;29;20427;-67
2021/04/03 09:33:24;;;;;;;11.55;4.13;;;9.10;99.90;;;;;;4934878;29;20578;-68
2021/04/03 09:35:52;;;;;;;12.10;4.03;;;9.00;99.90;;;;;;4954782;29;20492;-68
2021/04/03 09:38:30;;;;;;;10.93;4.13;;;9.40;99.90;;;;;;4950527;29;20050;-67
2021/04/03 09:40:56;;;;;;;10.65;3.38;;;10.40;99.90;;;;;;4937978;29;20118;-66
2021/04/03 09:43:39;;;;;;;12.32;3.17;;;11.30;99.90;;;;;;4953407;29;20459;-68
2021/04/03 09:46:07;;;;;;;8.30;3.20;;;10.80;97.90;;;;;;4952112;28;20534;-66
2021/04/03 09:48:35;;;;;;;10.48;3.67;;;10.80;99.00;;;;;;4951981;29;20495;-66
2021/04/03 09:51:04;;;;;;;7.40;2.90;;;11.40;97.30;;;;;;4951365;28;20094;-65
2021/04/03 09:53:30;;;;;;;11.75;2.83;;;12.20;95.20;;;;;;4951891;28;20043;-66
2021/04/03 09:55:57;;;;;;;10.50;3.35;;;12.00;91.50;;;;;;4953383;28;20051;-66
2021/04/03 09:58:25;;;;;;;10.57;3.35;;;11.90;93.80;;;;;;4953910;29;20073;-65
2021/04/03 10:00:52;;;;;;;6.80;2.92;;;10.60;93.20;;;;;;4953566;29;20050;-65
2021/04/03 10:03:19;;;;;;;5.93;2.33;;;11.10;92.70;;;;;;4952608;29;20288;-67
2021/04/03 10:05:46;;;;;;;8.10;3.20;;;11.10;93.00;;;;;;4936568;28;20098;-67
2021/04/03 10:08:12;;;;;;;8.77;2.88;;;10.80;94.10;;;;;;4953712;29;20058;-67
2021/04/03 10:10:40;;;;;;;7.63;2.90;;;10.70;94.30;;;;;;4935387;29;20086;-66
2021/04/03 10:13:08;;;;;;;9.73;2.35;;;10.90;94.90;;;;;;4953369;29;20078;-66
2021/04/03 10:15:35;;;;;;;12.38;2.92;;;11.20;93.50;;;;;;4954207;28;20094;-66
2021/04/03 10:18:05;;;;;;;9.32;2.67;;;11.30;93.20;;;;;;4953861;29;20094;-66
2021/04/03 10:20:32;;;;;;;7.13;2.10;;;10.70;92.10;;;;;;4952329;29;20460;-66
2021/04/03 10:22:59;;;;;;;9.15;3.10;;;10.80;93.10;;;;;;4953269;29;20043;-66
2021/04/03 10:25:25;;;;;;;10.77;3.20;;;11.20;90.80;;;;;;4953257;28;20047;-66
2021/04/03 10:27:51;;;;;;;9.15;2.88;;;11.30;90.60;;;;;;4952734;29;20156;-66
2021/04/03 10:30:22;;;;;;;9.70;2.67;;;12.40;88.90;;;;;;4952484;29;20059;-66
2021/04/03 10:32:48;;;;;;;10.98;2.80;;;11.70;85.80;;;;;;4952948;29;20051;-66
2021/04/03 10:35:14;;;;;;;20.73;4.85;;;11.80;88.40;;;;;;4952995;28;20503;-66
2021/04/03 10:37:41;;;;;;;11.63;3.17;;;11.30;91.20;;;;;;4952137;29;20110;-66
2021/04/03 10:40:08;;;;;;;9.38;3.05;;;9.90;93.80;;;;;;4950897;29;20043;-66
2021/04/03 10:42:34;;;;;;;7.65;2.60;;;9.60;95.90;;;;;;4951210;29;20062;-66
2021/04/03 10:45:01;;;;;;;11.75;2.85;;;9.30;96.90;;;;;;4951946;28;20122;-66
2021/04/03 10:47:28;;;;;;;6.82;2.33;;;9.80;97.90;;;;;;4948199;29;20062;-66
2021/04/03 10:49:54;;;;;;;11.30;2.70;;;10.10;97.40;;;;;;4952916;29;20090;-67
2021/04/03 10:52:21;;;;;;;8.50;2.90;;;10.40;96.00;;;;;;4952037;29;20047;-66
2021/04/03 10:54:47;;;;;;;9.27;2.90;;;10.40;95.70;;;;;;4953368;28;20039;-66
2021/04/03 10:57:14;;;;;;;10.80;2.95;;;10.50;94.70;;;;;;4953143;29;20043;-66
2021/04/03 10:59:41;;;;;;;11.20;2.92;;;10.40;94.50;;;;;;4952957;29;20578;-66
2021/04/03 11:02:08;;;;;;;7.00;2.80;;;10.90;94.60;;;;;;4953376;29;20063;-66
2021/04/03 11:04:34;;;;;;;8.00;1.95;;;11.40;94.20;;;;;;4951651;28;20051;-66
2021/04/03 11:07:01;;;;;;;7.88;2.72;;;12.20;92.60;;;;;;4951039;29;20047;-66
2021/04/03 11:09:28;;;;;;;7.00;2.08;;;12.10;89.40;;;;;;4949755;28;20058;-66
2021/04/03 11:11:54;;;;;;;9.20;2.33;;;12.70;91.70;;;;;;4949551;29;20121;-66
2021/04/03 11:14:20;;;;;;;4.97;1.73;;;13.10;86.20;;;;;;4952919;28;20043;-66
2021/04/03 11:16:46;;;;;;;6.43;1.60;;;13.00;84.80;;;;;;4939322;29;20424;-66
2021/04/03 11:19:13;;;;;;;6.78;2.05;;;12.80;88.30;;;;;;4951051;29;20498;-67
2021/04/03 11:21:39;;;;;;;9.95;2.42;;;12.00;84.50;;;;;;4951140;28;20055;-66
2021/04/03 11:24:06;;;;;;;9.25;2.20;;;11.90;84.90;;;;;;4953236;29;20039;-67
2021/04/03 11:26:33;;;;;;;5.25;2.03;;;10.80;85.20;;;;;;4952239;28;20579;-66
2021/04/03 11:29:00;;;;;;;8.65;1.88;;;10.50;87.50;;;;;;4952574;29;20161;-67
2021/04/03 11:31:27;;;;;;;7.45;1.88;;;10.80;90.30;;;;;;4952173;29;20114;-66
2021/04/03 11:33:54;;;;;;;5.97;1.58;;;10.30;88.80;;;;;;4952609;29;20205;-66
2021/04/03 11:36:21;;;;;;;8.32;1.83;;;10.80;89.50;;;;;;4952090;28;20043;-66
2021/04/03 11:38:47;;;;;;;7.95;2.10;;;10.90;87.00;;;;;;4951976;29;20047;-66
2021/04/03 11:41:13;;;;;;;5.28;1.63;;;11.10;86.10;;;;;;4952514;29;20438;-67
2021/04/03 11:43:40;;;;;;;6.45;1.45;;;11.10;85.90;;;;;;4952236;29;20043;-66
2021/04/03 11:46:07;;;;;;;9.05;2.03;;;10.90;86.20;;;;;;4952227;28;20047;-66
2021/04/03 11:48:33;;;;;;;6.40;2.30;;;10.70;85.90;;;;;;4951540;29;20484;-67
2021/04/03 11:51:00;;;;;;;4.28;1.55;;;10.20;86.90;;;;;;4952482;29;20047;-66
2021/04/03 11:53:27;;;;;;;6.05;1.80;;;10.60;86.60;;;;;;4952222;29;20059;-66
2021/04/03 11:55:53;;;;;;;6.88;2.00;;;11.10;88.10;;;;;;4952026;28;20075;-66
2021/04/03 11:58:20;;;;;;;9.27;2.05;;;11.30;84.60;;;;;;4951376;29;20066;-66
2021/04/03 12:00:46;;;;;;;5.43;1.73;;;11.50;81.70;;;;;;4952075;29;20480;-66
2021/04/03 12:03:13;;;;;;;7.43;1.75;;;12.00;80.30;;;;;;4951728;29;20039;-66
2021/04/03 12:05:39;;;;;;;5.07;1.50;;;12.40;81.60;;;;;;4951061;28;20156;-66
2021/04/03 12:08:06;;;;;;;10.18;2.17;;;12.20;80.40;;;;;;4951607;29;20511;-67
2021/04/03 12:10:32;;;;;;;11.98;1.80;;;11.70;79.10;;;;;;4951728;29;20446;-67
2021/04/03 12:12:59;;;;;;;7.43;1.63;;;11.50;78.30;;;;;;4951109;29;20066;-66
2021/04/03 12:15:26;;;;;;;10.20;1.80;;;11.60;78.90;;;;;;4952164;28;20047;-67
2021/04/03 12:17:52;;;;;;;6.88;1.80;;;12.00;77.10;;;;;;4951799;29;20054;-66
2021/04/03 12:20:19;;;;;;;7.55;1.20;;;11.50;77.90;;;;;;4952178;29;20047;-66
2021/04/03 12:22:45;;;;;;;6.85;1.42;;;11.70;79.70;;;;;;4951214;29;20146;-67
2021/04/03 12:25:13;;;;;;;5.28;1.33;;;12.20;78.00;;;;;;4951919;28;20051;-66
2021/04/03 12:27:39;;;;;;;5.60;1.58;;;12.20;76.10;;;;;;4932556;29;20078;-66
2021/04/03 12:30:06;;;;;;;5.53;1.52;;;12.30;76.30;;;;;;4950338;28;20047;-66
2021/04/03 12:32:33;;;;;;;5.90;1.40;;;11.70;76.30;;;;;;4951869;29;20051;-66
2021/04/03 12:34:59;;;;;;;7.47;1.70;;;12.20;76.70;;;;;;4951459;28;20050;-66
2021/04/03 12:37:26;;;;;;;8.60;1.50;;;12.30;76.50;;;;;;4951494;29;20051;-66
2021/04/03 12:39:52;;;;;;;7.68;1.20;;;12.30;74.10;;;;;;4951497;29;20461;-66
2021/04/03 12:42:19;;;;;;;6.05;1.38;;;12.60;74.40;;;;;;4950984;29;20105;-66
2021/04/03 12:44:45;;;;;;;7.97;1.60;;;12.30;72.50;;;;;;4950772;28;20050;-66
2021/04/03 12:47:11;;;;;;;9.77;1.60;;;12.50;71.30;;;;;;4950623;29;20078;-66
2021/04/03 12:49:38;;;;;;;4.63;0.98;;;12.60;70.60;;;;;;4944038;29;20604;-67
2021/04/03 12:52:05;;;;;;;3.83;1.00;;;12.10;70.20;;;;;;4950129;29;20050;-67
2021/04/03 12:54:31;;;;;;;4.80;1.10;;;11.60;68.90;;;;;;4950859;28;20141;-67
2021/04/03 12:56:58;;;;;;;6.03;0.88;;;11.90;69.70;;;;;;4951703;29;20110;-67
2021/04/03 12:59:24;;;;;;;8.63;0.88;;;12.70;63.40;;;;;;4933971;29;20508;-67